createdAt,value
2018-09-29T09:25:58.836Z,1025.59
2018-09-29T09:26:59.320Z,1025.55
2018-09-29T09:28:54.738Z,1025.49
2018-09-29T09:29:55.792Z,1025.46
2018-09-29T09:31:50.704Z,1025.49
2018-09-29T09:32:50.660Z,1025.47
2018-09-29T09:34:46.136Z,1025.45
2018-09-29T09:35:45.106Z,1025.42
2018-09-29T09:37:40.051Z,1025.36
2018-09-29T09:38:39.511Z,1025.34
2018-09-29T09:40:33.971Z,1025.31
2018-09-29T09:41:33.942Z,1025.28
2018-09-29T09:43:28.445Z,1025.30
2018-09-29T09:44:27.389Z,1025.28
2018-09-29T09:46:22.400Z,1025.29
2018-09-29T09:47:21.851Z,1025.27
2018-09-29T09:49:19.875Z,1025.28
2018-09-29T09:50:18.625Z,1025.31
2018-09-29T09:52:14.616Z,1025.29
2018-09-29T09:53:14.567Z,1025.31
2018-09-29T09:55:10.545Z,1025.23
2018-09-29T09:56:11.150Z,1025.21
2018-09-29T09:58:07.432Z,1025.18
2018-09-29T09:59:06.455Z,1025.19
2018-09-29T10:01:03.422Z,1025.13
2018-09-29T10:03:58.394Z,1025.11
2018-09-29T10:04:58.369Z,1025.09
2018-09-29T10:06:54.320Z,1025.03
2018-09-29T10:07:54.318Z,1025.03
2018-09-29T10:09:50.285Z,1024.98
2018-09-29T10:10:50.257Z,1024.99
2018-09-29T10:12:47.211Z,1024.95
2018-09-29T10:13:46.184Z,1024.92
2018-09-29T10:15:42.153Z,1024.87
2018-09-29T10:16:42.113Z,1024.84
2018-09-29T10:18:44.053Z,1024.79
2018-09-29T10:21:20.610Z,1024.75
2018-09-29T10:22:20.601Z,1024.75
2018-09-29T10:24:43.225Z,1024.72
2018-09-29T10:25:39.886Z,1024.70
2018-09-29T10:28:06.604Z,1024.65
2018-09-29T10:31:39.749Z,1024.61
2018-09-29T10:32:25.505Z,1024.60
2018-09-29T10:34:21.493Z,1024.55
2018-09-29T10:35:21.462Z,1024.50
2018-09-29T10:37:17.399Z,1024.53
2018-09-29T10:38:17.408Z,1024.55
2018-09-29T10:40:14.285Z,1024.53
2018-09-29T10:41:13.356Z,1024.56
2018-09-29T10:43:24.451Z,1024.51
2018-09-29T10:44:23.920Z,1024.45
2018-09-29T10:46:19.820Z,1024.47
2018-09-29T10:47:19.854Z,1024.46
2018-09-29T10:49:16.784Z,1024.36
2018-09-29T10:50:15.779Z,1024.37
2018-09-29T10:52:14.247Z,1024.30
2018-09-29T10:53:11.723Z,1024.24
2018-09-29T10:55:07.667Z,1024.25
2018-09-29T10:56:07.665Z,1024.23
2018-09-29T10:58:03.617Z,1024.23
2018-09-29T10:59:03.614Z,1024.24
2018-09-29T11:00:59.691Z,1024.21
2018-09-29T11:01:59.618Z,1024.19
2018-09-29T11:03:57.678Z,1024.14
2018-09-29T11:04:58.542Z,1024.12
2018-09-29T11:06:53.645Z,1024.11
2018-09-29T11:07:53.633Z,1024.12
2018-09-29T11:09:49.604Z,1024.11
2018-09-29T11:10:50.076Z,1024.08
2018-09-29T11:12:46.031Z,1024.12
2018-09-29T11:13:45.504Z,1024.07
2018-09-29T11:15:41.405Z,1024.06
2018-09-29T11:16:41.428Z,1024.04
2018-09-29T11:18:37.373Z,1023.98
2018-09-29T11:19:37.390Z,1024.00
2018-09-29T11:21:33.318Z,1024.00
2018-09-29T11:22:33.315Z,1024.00
2018-09-29T11:24:30.274Z,1023.96
2018-09-29T11:25:29.249Z,1023.88
2018-09-29T11:27:23.725Z,1023.84
2018-09-29T11:28:23.711Z,1023.85
2018-09-29T11:30:19.679Z,1023.79
2018-09-29T11:31:19.653Z,1023.80
2018-09-29T11:33:15.606Z,1023.76
2018-09-29T11:34:15.641Z,1023.70
2018-09-29T11:36:11.639Z,1023.69
2018-09-29T11:37:11.544Z,1023.65
2018-09-29T11:39:06.022Z,1023.68
2018-09-29T11:40:04.951Z,1023.69
2018-09-29T11:42:00.406Z,1023.67
2018-09-29T11:42:59.414Z,1023.64
2018-09-29T11:44:56.001Z,1023.55
2018-09-29T11:45:55.366Z,1023.56
2018-09-29T11:47:51.338Z,1023.50
2018-09-29T11:48:51.313Z,1023.46
2018-09-29T11:50:47.297Z,1023.49
2018-09-29T11:51:47.772Z,1023.46
2018-09-29T11:53:41.745Z,1023.39
2018-09-29T11:54:42.211Z,1023.37
2018-09-29T11:56:37.911Z,1023.40
2018-09-29T11:57:37.912Z,1023.34
2018-09-29T11:59:34.373Z,1023.30
2018-09-29T12:00:33.857Z,1023.25
2018-09-29T12:02:29.807Z,1023.26
2018-09-29T12:03:29.784Z,1023.26
2018-09-29T12:05:25.251Z,1023.21
2018-09-29T12:06:24.281Z,1023.22
2018-09-29T12:08:18.001Z,1023.18
2018-09-29T12:09:17.641Z,1023.13
2018-09-29T12:11:13.036Z,1023.09
2018-09-29T12:12:13.105Z,1023.06
2018-09-29T12:14:07.073Z,1023.04
2018-09-29T12:15:07.083Z,1023.03
2018-09-29T12:17:01.533Z,1023.04
2018-09-29T12:18:01.494Z,1023.01
2018-09-29T12:19:57.953Z,1023.00
2018-09-29T12:20:57.444Z,1022.91
2018-09-29T12:22:51.901Z,1022.87
2018-09-29T12:23:51.893Z,1022.87
2018-09-29T12:25:47.854Z,1022.82
2018-09-29T12:26:47.802Z,1022.79
2018-09-29T12:28:42.279Z,1022.75
2018-09-29T12:29:42.280Z,1022.77
2018-09-29T12:31:38.266Z,1022.74
2018-09-29T12:32:39.157Z,1022.72
2018-09-29T12:34:34.741Z,1022.64
2018-09-29T12:35:34.174Z,1022.67
2018-09-29T12:37:30.200Z,1022.62
2018-09-29T12:38:30.185Z,1022.64
2018-09-29T12:40:26.630Z,1022.66
2018-09-29T12:41:26.629Z,1022.65
2018-09-29T12:43:21.592Z,1022.59
2018-09-29T12:44:20.601Z,1022.61
2018-09-29T12:46:15.028Z,1022.62
2018-09-29T12:47:15.041Z,1022.58
2018-09-29T12:49:09.505Z,1022.55
2018-09-29T12:50:09.566Z,1022.53
2018-09-29T12:52:06.941Z,1022.47
2018-09-29T12:53:06.153Z,1022.45
2018-09-29T12:54:59.477Z,1022.41
2018-09-29T12:55:58.964Z,1022.45
2018-09-29T12:57:53.372Z,1022.41
2018-09-29T12:58:53.385Z,1022.40
2018-09-29T13:00:49.812Z,1022.37
2018-09-29T13:01:49.406Z,1022.40
2018-09-29T13:03:43.862Z,1022.28
2018-09-29T13:04:43.856Z,1022.27
2018-09-29T13:06:39.313Z,1022.19
2018-09-29T13:07:38.324Z,1022.20
2018-09-29T13:09:34.253Z,1022.14
2018-09-29T13:10:34.229Z,1022.12
2018-09-29T13:12:30.717Z,1022.14
2018-09-29T13:13:30.208Z,1022.11
2018-09-29T13:15:28.123Z,1022.06
2018-09-29T13:16:29.108Z,1022.08
2018-09-29T13:18:24.563Z,1022.04
2018-09-29T13:19:24.054Z,1022.00
2018-09-29T13:21:20.016Z,1021.98
2018-09-29T13:22:20.499Z,1021.98
2018-09-29T13:24:16.950Z,1021.86
2018-09-29T13:25:15.973Z,1021.88
2018-09-29T13:27:11.899Z,1021.85
2018-09-29T13:28:12.414Z,1021.79
2018-09-29T13:30:07.878Z,1021.82
2018-09-29T13:31:07.839Z,1021.82
2018-09-29T13:33:02.801Z,1021.76
2018-09-29T13:34:01.303Z,1021.77
2018-09-29T13:35:57.758Z,1021.78
2018-09-29T13:36:55.762Z,1021.74
2018-09-29T13:38:50.207Z,1021.74
2018-09-29T13:39:50.697Z,1021.73
2018-09-29T13:41:48.154Z,1021.70
2018-09-29T13:42:46.159Z,1021.71
2018-09-29T13:44:42.611Z,1021.65
2018-09-29T13:45:42.133Z,1021.66
2018-09-29T13:47:38.566Z,1021.62
2018-09-29T13:48:38.024Z,1021.57
2018-09-29T13:50:36.158Z,1021.57
2018-09-29T13:51:36.986Z,1021.55
2018-09-29T13:53:33.621Z,1021.55
2018-09-29T13:54:32.601Z,1021.56
2018-09-29T13:56:26.556Z,1021.51
2018-09-29T13:57:27.033Z,1021.53
2018-09-29T13:59:23.000Z,1021.43
2018-09-29T14:00:22.475Z,1021.48
2018-09-29T14:02:18.843Z,1021.45
2018-09-29T14:03:18.792Z,1021.46
2018-09-29T14:05:15.239Z,1021.43
2018-09-29T14:06:14.721Z,1021.41
2018-09-29T14:08:11.676Z,1021.33
2018-09-29T14:09:12.108Z,1021.37
2018-09-29T14:11:06.672Z,1021.33
2018-09-29T14:12:06.621Z,1021.28
2018-09-29T14:14:05.093Z,1021.26
2018-09-29T14:15:05.609Z,1021.21
2018-09-29T14:17:00.705Z,1021.14
2018-09-29T14:18:00.673Z,1021.12
2018-09-29T14:19:57.688Z,1021.15
2018-09-29T14:20:56.631Z,1021.13
2018-09-29T14:22:53.079Z,1021.10
2018-09-29T14:23:54.067Z,1021.09
2018-09-29T14:25:48.528Z,1021.01
2018-09-29T14:26:48.512Z,1020.97
2018-09-29T14:28:45.978Z,1020.95
2018-09-29T14:29:44.503Z,1020.99
2018-09-29T14:31:40.976Z,1020.92
2018-09-29T14:32:40.462Z,1020.91
2018-09-29T14:34:36.397Z,1020.92
2018-09-29T14:35:36.943Z,1020.84
2018-09-29T14:37:32.429Z,1020.86
2018-09-29T14:38:32.871Z,1020.86
2018-09-29T14:40:26.728Z,1020.86
2018-09-29T14:41:28.176Z,1020.85
2018-09-29T14:43:21.688Z,1020.83
2018-09-29T14:44:21.125Z,1020.79
2018-09-29T14:46:17.055Z,1020.83
2018-09-29T14:47:17.589Z,1020.82
2018-09-29T14:49:14.047Z,1020.83
2018-09-29T14:50:13.032Z,1020.78
2018-09-29T14:52:08.996Z,1020.72
2018-09-29T14:53:08.984Z,1020.68
2018-09-29T14:55:05.928Z,1020.65
2018-09-29T14:56:05.935Z,1020.64
2018-09-29T14:58:01.323Z,1020.61
2018-09-29T14:59:01.291Z,1020.55
2018-09-29T15:00:57.251Z,1020.58
2018-09-29T15:01:57.709Z,1020.55
2018-09-29T15:03:54.630Z,1020.51
2018-09-29T15:04:54.190Z,1020.55
2018-09-29T15:06:50.169Z,1020.50
2018-09-29T15:07:49.154Z,1020.43
2018-09-29T15:09:45.605Z,1020.36
2018-09-29T15:10:45.095Z,1020.37
2018-09-29T15:12:41.096Z,1020.37
2018-09-29T15:13:41.547Z,1020.36
2018-09-29T15:15:36.975Z,1020.33
2018-09-29T15:16:36.983Z,1020.35
2018-09-29T15:18:32.977Z,1020.32
2018-09-29T15:19:34.434Z,1020.28
2018-09-29T15:21:26.881Z,1020.25
2018-09-29T15:22:26.375Z,1020.28
2018-09-29T15:24:23.337Z,1020.28
2018-09-29T15:25:23.314Z,1020.24
2018-09-29T15:27:19.264Z,1020.21
2018-09-29T15:28:19.269Z,1020.23
2018-09-29T15:30:16.234Z,1020.18
2018-09-29T15:31:15.228Z,1020.19
2018-09-29T15:33:12.176Z,1020.16
2018-09-29T15:34:11.185Z,1020.13
2018-09-29T15:36:07.117Z,1020.11
2018-09-29T15:37:07.677Z,1020.06
2018-09-29T15:39:08.349Z,1020.05
2018-09-29T15:40:08.603Z,1020.07
2018-09-29T15:42:03.668Z,1020.09
2018-09-29T15:43:03.586Z,1020.10
2018-09-29T15:45:02.117Z,1020.09
2018-09-29T15:46:01.969Z,1020.09
2018-09-29T15:47:59.397Z,1020.07
2018-09-29T15:48:57.530Z,1020.03
2018-09-29T15:50:51.954Z,1020.02
2018-09-29T15:51:52.030Z,1020.02
2018-09-29T15:53:52.717Z,1020.03
2018-09-29T15:54:52.828Z,1020.01
2018-09-29T15:56:48.216Z,1020.00
2018-09-29T15:57:47.486Z,1020.00
2018-09-29T15:59:45.395Z,1019.99
2018-09-29T16:00:44.549Z,1019.96
2018-09-29T16:02:40.644Z,1019.97
2018-09-29T16:03:41.557Z,1019.93
2018-09-29T16:05:42.922Z,1019.92
2018-09-29T16:06:42.766Z,1019.91
2018-09-29T16:08:39.189Z,1019.85
2018-09-29T16:09:39.276Z,1019.87
2018-09-29T16:11:38.142Z,1019.81
2018-09-29T16:12:38.315Z,1019.85
2018-09-29T16:14:52.882Z,1019.80
2018-09-29T16:18:07.040Z,1019.80
2018-09-29T16:20:18.415Z,1019.72
2018-09-29T16:22:42.899Z,1019.68
2018-09-29T16:23:42.495Z,1019.70
2018-09-29T16:25:58.315Z,1019.62
2018-09-29T16:26:41.955Z,1019.62
2018-09-29T16:28:50.560Z,1019.61
2018-09-29T16:31:33.474Z,1019.59
2018-09-29T16:32:32.062Z,1019.52
2018-09-29T16:34:52.349Z,1019.55
2018-09-29T16:35:53.476Z,1019.57
2018-09-29T16:38:01.770Z,1019.59
2018-09-29T16:39:02.872Z,1019.57
2018-09-29T16:43:21.708Z,1019.57
2018-09-29T16:45:37.568Z,1019.53
2018-09-29T16:46:37.589Z,1019.53
2018-09-29T16:48:34.072Z,1019.48
2018-09-29T16:49:34.482Z,1019.48
2018-09-29T16:51:27.063Z,1019.47
2018-09-29T16:52:27.934Z,1019.44
2018-09-29T16:54:20.476Z,1019.44
2018-09-29T16:55:20.468Z,1019.41
2018-09-29T16:57:15.479Z,1019.38
2018-09-29T16:58:15.416Z,1019.36
2018-09-29T17:00:09.864Z,1019.37
2018-09-29T17:01:09.853Z,1019.42
2018-09-29T17:03:04.295Z,1019.41
2018-09-29T17:04:03.977Z,1019.39
2018-09-29T17:05:58.296Z,1019.37
2018-09-29T17:06:58.774Z,1019.34
2018-09-29T17:08:54.721Z,1019.38
2018-09-29T17:09:54.240Z,1019.40
2018-09-29T17:11:50.659Z,1019.37
2018-09-29T17:12:49.162Z,1019.38
2018-09-29T17:14:43.152Z,1019.36
2018-09-29T17:15:43.179Z,1019.35
2018-09-29T17:17:37.583Z,1019.33
2018-09-29T17:18:37.076Z,1019.34
2018-09-29T17:20:32.024Z,1019.29
2018-09-29T17:21:31.003Z,1019.27
2018-09-29T17:23:26.465Z,1019.24
2018-09-29T17:24:25.455Z,1019.28
2018-09-29T17:26:21.432Z,1019.25
2018-09-29T17:27:21.923Z,1019.26
2018-09-29T17:29:14.827Z,1019.28
2018-09-29T17:30:14.839Z,1019.31
2018-09-29T17:32:11.286Z,1019.28
2018-09-29T17:33:09.269Z,1019.27
2018-09-29T17:35:03.753Z,1019.21
2018-09-29T17:36:03.696Z,1019.23
2018-09-29T17:37:58.155Z,1019.22
2018-09-29T17:38:58.662Z,1019.21
2018-09-29T17:40:53.102Z,1019.22
2018-09-29T17:41:54.104Z,1019.21
2018-09-29T17:43:48.040Z,1019.27
2018-09-29T17:44:47.063Z,1019.25
2018-09-29T17:46:41.489Z,1019.22
2018-09-29T17:47:41.499Z,1019.22
2018-09-29T17:49:37.446Z,1019.24
2018-09-29T17:50:37.476Z,1019.26
2018-09-29T17:52:31.437Z,1019.23
2018-09-29T17:53:31.417Z,1019.27
2018-09-29T17:55:26.350Z,1019.25
2018-09-29T17:56:25.278Z,1019.19
2018-09-29T17:58:19.718Z,1019.21
2018-09-29T17:59:19.716Z,1019.19
2018-09-29T18:01:14.147Z,1019.21
2018-09-29T18:02:15.669Z,1019.24
2018-09-29T18:04:08.696Z,1019.22
2018-09-29T18:05:09.111Z,1019.24
2018-09-29T18:07:03.040Z,1019.20
2018-09-29T18:08:03.043Z,1019.21
2018-09-29T18:09:57.487Z,1019.26
2018-09-29T18:10:57.477Z,1019.33
2018-09-29T18:12:51.944Z,1019.30
2018-09-29T18:13:52.464Z,1019.27
2018-09-29T18:15:48.372Z,1019.31
2018-09-29T18:16:48.366Z,1019.33
2018-09-29T18:18:42.320Z,1019.35
2018-09-29T18:19:42.275Z,1019.35
2018-09-29T18:21:36.758Z,1019.36
2018-09-29T18:22:37.224Z,1019.34
2018-09-29T18:24:33.153Z,1019.30
2018-09-29T18:25:33.146Z,1019.29
2018-09-29T18:27:27.069Z,1019.31
2018-09-29T18:28:27.081Z,1019.33
2018-09-29T18:30:22.463Z,1019.29
2018-09-29T18:31:22.025Z,1019.25
2018-09-29T18:33:15.474Z,1019.27
2018-09-29T18:34:14.950Z,1019.24
2018-09-29T18:36:10.914Z,1019.25
2018-09-29T18:37:09.404Z,1019.21
2018-09-29T18:39:05.275Z,1019.21
2018-09-29T18:40:03.828Z,1019.21
2018-09-29T18:42:00.306Z,1019.19
2018-09-29T18:42:59.772Z,1019.15
2018-09-29T18:44:55.232Z,1019.19
2018-09-29T18:45:54.228Z,1019.20
2018-09-29T18:47:47.666Z,1019.17
2018-09-29T18:48:47.680Z,1019.20
2018-09-29T18:50:42.617Z,1019.21
2018-09-29T18:51:42.152Z,1019.21
2018-09-29T18:53:36.517Z,1019.23
2018-09-29T18:54:36.542Z,1019.24
2018-09-29T18:56:30.996Z,1019.14
2018-09-29T18:57:32.039Z,1019.17
2018-09-29T18:59:26.944Z,1019.19
2018-09-29T19:00:26.920Z,1019.15
2018-09-29T19:02:21.337Z,1019.12
2018-09-29T19:03:21.340Z,1019.11
2018-09-29T19:05:17.788Z,1019.11
2018-09-29T19:06:17.249Z,1019.10
2018-09-29T19:08:10.735Z,1019.07
2018-09-29T19:09:10.684Z,1019.10
2018-09-29T19:11:04.127Z,1019.11
2018-09-29T19:12:04.112Z,1019.09
2018-09-29T19:13:57.580Z,1019.05
2018-09-29T19:14:57.561Z,1019.03
2018-09-29T19:16:53.527Z,1019.03
2018-09-29T19:17:53.498Z,1019.02
2018-09-29T19:19:49.449Z,1019.02
2018-09-29T19:20:47.936Z,1019.00
2018-09-29T19:22:42.880Z,1019.02
2018-09-29T19:23:42.353Z,1018.98
2018-09-29T19:25:36.788Z,1019.02
2018-09-29T19:26:37.301Z,1018.99
2018-09-29T19:28:31.232Z,1019.01
2018-09-29T19:29:31.214Z,1018.96
2018-09-29T19:31:26.664Z,1019.01
2018-09-29T19:32:26.165Z,1018.99
2018-09-29T19:34:20.591Z,1019.02
2018-09-29T19:35:20.097Z,1019.03
2018-09-29T19:37:14.562Z,1019.03
2018-09-29T19:38:15.034Z,1019.00
2018-09-29T19:40:08.976Z,1018.98
2018-09-29T19:41:08.940Z,1018.95
2018-09-29T19:43:04.866Z,1018.94
2018-09-29T19:44:05.385Z,1018.94
2018-09-29T19:45:59.296Z,1018.96
2018-09-29T19:46:59.828Z,1018.97
2018-09-29T19:48:53.754Z,1018.94
2018-09-29T19:49:53.725Z,1018.95
2018-09-29T19:51:48.181Z,1018.97
2018-09-29T19:52:48.687Z,1018.94
2018-09-29T19:54:44.077Z,1018.89
2018-09-29T19:55:44.626Z,1018.93
2018-09-29T19:57:37.568Z,1018.93
2018-09-29T19:58:37.545Z,1018.94
2018-09-29T20:00:32.497Z,1018.97
2018-09-29T20:01:31.978Z,1018.94
2018-09-29T20:03:25.438Z,1018.99
2018-09-29T20:04:25.414Z,1018.97
2018-09-29T20:06:19.874Z,1018.89
2018-09-29T20:07:20.365Z,1018.85
2018-09-29T20:09:13.316Z,1018.77
2018-09-29T20:10:13.368Z,1018.80
2018-09-29T20:12:09.752Z,1018.82
2018-09-29T20:13:08.246Z,1018.81
2018-09-29T20:15:03.165Z,1018.83
2018-09-29T20:16:02.126Z,1018.86
2018-09-29T20:17:59.579Z,1018.79
2018-09-29T20:18:58.583Z,1018.79
2018-09-29T20:20:53.995Z,1018.80
2018-09-29T20:21:53.982Z,1018.77
2018-09-29T20:23:48.450Z,1018.77
2018-09-29T20:24:48.941Z,1018.79
2018-09-29T20:26:41.862Z,1018.73
2018-09-29T20:27:41.868Z,1018.74
2018-09-29T20:29:36.336Z,1018.75
2018-09-29T20:30:36.392Z,1018.75
2018-09-29T20:32:30.725Z,1018.74
2018-09-29T20:33:30.732Z,1018.76
2018-09-29T20:35:28.207Z,1018.72
2018-09-29T20:36:26.637Z,1018.73
2018-09-29T20:38:21.096Z,1018.76
2018-09-29T20:39:20.058Z,1018.70
2018-09-29T20:41:15.980Z,1018.69
2018-09-29T20:42:15.984Z,1018.71
2018-09-29T20:44:10.455Z,1018.66
2018-09-29T20:45:10.405Z,1018.69
2018-09-29T20:47:05.502Z,1018.63
2018-09-29T20:48:04.369Z,1018.63
2018-09-29T20:49:58.291Z,1018.59
2018-09-29T20:50:58.254Z,1018.60
2018-09-29T20:52:54.770Z,1018.59
2018-09-29T20:53:52.691Z,1018.62
2018-09-29T20:55:48.768Z,1018.65
2018-09-29T20:56:48.737Z,1018.64
2018-09-29T20:58:43.571Z,1018.63
2018-09-29T20:59:43.565Z,1018.60
2018-09-29T21:01:36.568Z,1018.61
2018-09-29T21:02:36.471Z,1018.64
2018-09-29T21:04:29.936Z,1018.64
2018-09-29T21:05:29.934Z,1018.61
2018-09-29T21:07:23.352Z,1018.60
2018-09-29T21:08:23.370Z,1018.57
2018-09-29T21:10:17.793Z,1018.55
2018-09-29T21:11:17.789Z,1018.54
2018-09-29T21:13:12.843Z,1018.53
2018-09-29T21:14:12.731Z,1018.54
2018-09-29T21:16:06.687Z,1018.54
2018-09-29T21:17:07.186Z,1018.48
2018-09-29T21:19:01.121Z,1018.47
2018-09-29T21:20:01.611Z,1018.47
2018-09-29T21:21:57.076Z,1018.44
2018-09-29T21:22:58.772Z,1018.41
2018-09-29T21:24:50.557Z,1018.43
2018-09-29T21:25:50.494Z,1018.41
2018-09-29T21:27:44.945Z,1018.38
2018-09-29T21:28:45.436Z,1018.33
2018-09-29T21:30:38.360Z,1018.33
2018-09-29T21:31:38.361Z,1018.33
2018-09-29T21:33:32.774Z,1018.35
2018-09-29T21:34:33.302Z,1018.32
2018-09-29T21:36:28.779Z,1018.35
2018-09-29T21:37:28.721Z,1018.31
2018-09-29T21:39:22.657Z,1018.33
2018-09-29T21:40:22.146Z,1018.34
2018-09-29T21:42:17.581Z,1018.26
2018-09-29T21:43:16.870Z,1018.25
2018-09-29T21:45:10.826Z,1018.23
2018-09-29T21:46:10.297Z,1018.21
2018-09-29T21:48:06.261Z,1018.18
2018-09-29T21:49:06.229Z,1018.18
2018-09-29T21:51:03.671Z,1018.12
2018-09-29T21:52:02.180Z,1018.11
2018-09-29T21:53:57.146Z,1018.13
2018-09-29T21:54:56.612Z,1018.16
2018-09-29T21:56:51.985Z,1018.14
2018-09-29T21:57:51.555Z,1018.07
2018-09-29T21:59:45.998Z,1018.04
2018-09-29T22:00:45.510Z,1017.99
2018-09-29T22:02:40.474Z,1018.01
2018-09-29T22:03:40.493Z,1018.02
2018-09-29T22:05:34.355Z,1018.04
2018-09-29T22:06:34.335Z,1018.07
2018-09-29T22:08:29.288Z,1018.08
2018-09-29T22:09:28.752Z,1018.08
2018-09-29T22:11:23.185Z,1018.07
2018-09-29T22:12:23.178Z,1018.05
2018-09-29T22:14:16.646Z,1018.08
2018-09-29T22:15:16.605Z,1018.09
2018-09-29T22:17:11.565Z,1018.04
2018-09-29T22:18:11.038Z,1018.04
2018-09-29T22:20:06.966Z,1018.04
2018-09-29T22:21:05.520Z,1018.03
2018-09-29T22:22:59.911Z,1018.00
2018-09-29T22:23:59.865Z,1018.03
2018-09-29T22:25:55.246Z,1018.00
2018-09-29T22:26:54.268Z,1017.97
2018-09-29T22:28:48.712Z,1017.99
2018-09-29T22:29:48.717Z,1018.03
2018-09-29T22:31:43.695Z,1017.98
2018-09-29T22:32:43.143Z,1017.99
2018-09-29T22:34:38.084Z,1017.93
2018-09-29T22:35:37.567Z,1017.92
2018-09-29T22:37:34.004Z,1017.87
2018-09-29T22:38:32.508Z,1017.87
2018-09-29T22:40:25.936Z,1017.81
2018-09-29T22:41:25.411Z,1017.76
2018-09-29T22:43:19.928Z,1017.74
2018-09-29T22:44:19.840Z,1017.75
2018-09-29T22:46:14.282Z,1017.74
2018-09-29T22:47:14.273Z,1017.71
2018-09-29T22:49:08.724Z,1017.68
2018-09-29T22:50:08.686Z,1017.71
2018-09-29T22:52:03.614Z,1017.63
2018-09-29T22:53:03.620Z,1017.65
2018-09-29T22:54:57.579Z,1017.66
2018-09-29T22:55:58.066Z,1017.65
2018-09-29T22:57:53.400Z,1017.67
2018-09-29T22:58:51.939Z,1017.68
2018-09-29T23:00:46.889Z,1017.65
2018-09-29T23:01:46.366Z,1017.67
2018-09-29T23:03:41.810Z,1017.65
2018-09-29T23:04:40.794Z,1017.64
2018-09-29T23:06:35.730Z,1017.63
2018-09-29T23:07:35.748Z,1017.58
2018-09-29T23:09:29.681Z,1017.55
2018-09-29T23:10:29.641Z,1017.55
2018-09-29T23:12:24.588Z,1017.51
2018-09-29T23:13:24.073Z,1017.48
2018-09-29T23:15:18.530Z,1017.48
2018-09-29T23:16:18.465Z,1017.49
2018-09-29T23:18:12.894Z,1017.46
2018-09-29T23:19:13.088Z,1017.47
2018-09-29T23:21:08.344Z,1017.45
2018-09-29T23:22:07.326Z,1017.48
2018-09-29T23:24:01.784Z,1017.54
2018-09-29T23:25:01.777Z,1017.56
2018-09-29T23:26:56.185Z,1017.56
2018-09-29T23:27:56.185Z,1017.56
2018-09-29T23:29:50.649Z,1017.58
2018-09-29T23:30:50.641Z,1017.58
2018-09-29T23:32:45.084Z,1017.56
2018-09-29T23:33:45.056Z,1017.57
2018-09-29T23:35:39.496Z,1017.54
2018-09-29T23:36:39.475Z,1017.52
2018-09-29T23:38:34.412Z,1017.50
2018-09-29T23:39:33.913Z,1017.46
2018-09-29T23:41:28.318Z,1017.46
2018-09-29T23:42:28.330Z,1017.49
2018-09-29T23:44:22.779Z,1017.52
2018-09-29T23:45:22.755Z,1017.50
2018-09-29T23:47:17.715Z,1017.46
2018-09-29T23:48:17.183Z,1017.46
2018-09-29T23:50:10.604Z,1017.43
2018-09-29T23:51:12.129Z,1017.41
2018-09-29T23:53:04.066Z,1017.42
2018-09-29T23:54:04.028Z,1017.39
2018-09-29T23:55:58.486Z,1017.38
2018-09-29T23:56:58.463Z,1017.40
2018-09-29T23:58:53.424Z,1017.40
2018-09-29T23:59:52.879Z,1017.39
